Latest Weather Observations for Ballina

IDN60801

Issued at 4:52 am EST Friday 20 May 2022 (issued every 10 minutes, with the page automatically refreshed every 10 minutes)

About weather observations | Map of weather stations | Latest weather observations for NSW | Other Formats
Station Details ID: 058198 Name: BALLINA AIRPORT AWS Lat: -28.84 Lon: 153.56 Height: 1.3 m
Data from the previous 72 hours. | See also: Recent months at Ballina
Date/Time
EST
Temp
°C
App
Temp
°C
Dew
Point
°C
Rel
Hum
%
Delta-T
°C
Wind Press
QNH
hPa
Press
MSL
hPa
Rain since
9am
mm
Dir  Spd
km/h
Gust
km/h
Spd
kts
Gust
kts
20/04:30am 15.6 15.0 13.4 87 1.2 W 9 11 5 6 1024.4 1024.4 0.0
20/04:00am 15.9 15.0 13.6 86 1.3 W 11 13 6 7 1024.7 1024.7 0.0
20/03:30am 16.2 15.7 13.9 86 1.3 WSW 9 13 5 7 1024.5 1024.5 0.0
20/03:00am 16.3 15.5 14.1 87 1.2 WSW 11 15 6 8 1024.4 1024.4 0.0
20/02:30am 16.1 15.3 13.9 87 1.2 WSW 11 15 6 8 1024.4 1024.4 0.0
20/02:00am 16.3 15.4 13.8 85 1.4 WSW 11 19 6 10 1024.3 1024.3 0.0
20/01:30am 16.9 16.2 14.2 84 1.5 SW 11 19 6 10 1024.7 1024.7 0.0
20/01:00am 17.1 15.1 14.0 82 1.8 WSW 17 22 9 12 1024.9 1024.9 0.0
20/12:30am 18.7 18.5 14.8 78 2.3 S 9 19 5 10 1025.0 1025.0 0.0
20/12:00am 19.5 18.4 13.2 67 3.6 SE 11 17 6 9 1025.0 1025.0 0.0
 
Date/Time
EST
Temp
°C
App
Temp
°C
Dew
Point
°C
Rel
Hum
%
Delta-T
°C
Wind Press
QNH
hPa
Press
MSL
hPa
Rain since
9am
mm
Dir  Spd
km/h
Gust
km/h
Spd
kts
Gust
kts
19/11:30pm 19.9 18.0 13.1 65 3.9 SE 15 20 8 11 1025.1 1025.1 0.0
19/11:00pm 20.0 18.2 13.2 65 3.8 SSE 15 24 8 13 1025.4 1025.4 0.0
19/10:30pm 19.7 18.1 13.9 69 3.3 SE 15 19 8 10 1025.1 1025.1 0.0
19/10:00pm 19.9 18.3 14.0 69 3.4 SE 15 19 8 10 1025.1 1025.1 0.0
19/09:30pm 20.0 18.4 13.9 68 3.5 SE 15 22 8 12 1025.2 1025.2 0.0
19/09:00pm 20.1 17.8 14.0 68 3.5 SE 19 28 10 15 1024.8 1024.8 0.0
19/08:30pm 19.8 18.7 14.4 71 3.1 SE 13 20 7 11 1024.8 1024.8 0.0
19/08:00pm 19.1 19.0 15.0 77 2.4 SE 9 15 5 8 1024.6 1024.6 0.0
19/07:30pm 17.3 17.3 15.3 88 1.2 WSW 9 11 5 6 1024.6 1024.6 0.0
19/07:00pm 17.3 17.4 15.5 89 1.0 W 9 13 5 7 1024.3 1024.3 0.0
19/06:30pm 17.8 17.8 15.1 84 1.6 WSW 9 13 5 7 1024.1 1024.1 0.0
19/06:00pm 17.9 17.4 15.0 83 1.7 WSW 11 15 6 8 1023.6 1023.6 0.0
19/05:30pm 18.1 17.3 15.0 82 1.8 WSW 13 17 7 9 1023.3 1023.3 0.0
19/05:00pm 19.6 19.4 14.8 74 2.8 SSW 9 13 5 7 1023.2 1023.2 0.0
19/04:30pm 20.2 19.6 14.6 70 3.3 S 11 17 6 9 1022.6 1022.6 0.0
19/04:00pm 20.5 19.0 14.2 67 3.6 SSE 15 20 8 11 1022.3 1022.3 0.0
19/03:30pm 21.4 21.0 15.3 68 3.6 S 11 15 6 8 1022.1 1022.1 0.0
19/03:00pm 20.5 19.0 14.2 67 3.6 S 15 19 8 10 1022.1 1022.1 0.0
19/02:30pm 20.8 19.4 14.5 67 3.7 S 15 20 8 11 1021.8 1021.8 0.0
19/02:00pm 21.3 20.0 14.9 67 3.8 SSE 15 22 8 12 1021.7 1021.7 0.0
19/01:30pm 21.6 20.6 14.5 64 4.2 SSW 13 19 7 10 1021.8 1021.8 0.0
19/01:00pm 20.8 20.6 15.6 72 3.1 SSW 11 15 6 8 1022.0 1022.0 0.0
19/12:30pm 20.7 20.4 15.5 72 3.1 SW 11 20 6 11 1022.2 1022.2 0.0
19/12:00pm 20.3 19.9 15.3 73 2.9 SW 11 15 6 8 1022.4 1022.4 0.0
19/11:30am 20.7 19.8 15.9 74 2.9 SW 15 24 8 13 1022.6 1022.6 0.0
19/11:00am 20.1 19.5 15.7 76 2.6 SW 13 19 7 10 1023.1 1023.1 0.0
19/10:30am 19.4 18.9 15.9 80 2.1 SSW 13 17 7 9 1023.4 1023.4 0.0
19/10:00am 18.9 19.2 16.9 88 1.2 WSW 11 17 6 9 1023.6 1023.6 0.0
19/09:30am 18.8 18.8 17.3 91 0.9 W 13 17 7 9 1023.6 1023.6 0.0
19/09:00am 18.6 18.9 17.1 91 0.9 WSW 11 17 6 9 1023.4 1023.4 6.2
19/08:30am 18.6 18.6 17.1 91 0.9 W 13 17 7 9 1022.8 1022.8 6.2
19/08:00am 18.5 19.4 16.5 88 1.2 NW 7 9 4 5 1022.2 1022.2 6.2
19/07:30am 19.5 19.1 15.2 76 2.5 SSE 11 17 6 9 1022.4 1022.4 6.2
19/07:00am 19.5 17.9 15.0 75 2.6 SE 17 24 9 13 1022.0 1022.0 6.2
19/06:30am 19.3 18.8 15.8 80 2.1 SE 13 19 7 10 1021.3 1021.3 6.2
19/06:00am 19.2 18.8 16.1 82 1.8 SE 13 19 7 10 1021.1 1021.1 6.2
19/05:30am 18.3 19.1 16.3 88 1.2 SSE 7 11 4 6 1020.7 1020.7 6.2
19/05:00am 18.5 19.9 17.7 95 0.5 SW 7 9 4 5 1020.5 1020.5 6.2
19/04:30am 18.5 19.2 17.9 96 0.4 SW 11 15 6 8 1020.4 1020.4 6.2
19/04:25am 18.4 19.0 17.8 96 0.4 SW 11 15 6 8 1020.3 1020.3 6.2
19/04:00am 18.4 19.8 17.9 97 0.3 S 7 9 4 5 1020.1 1020.1 6.0
19/03:54am 18.3 19.8 17.7 96 0.4 S 6 9 3 5 1020.2 1020.2 5.6
19/03:30am 18.1 19.9 17.5 96 0.4 WSW 4 7 2 4 1020.0 1020.0 5.0
19/03:23am 18.1 20.3 17.5 96 0.4 WSW 2 7 1 4 1019.9 1019.9 4.8
19/03:12am 18.1 19.4 17.5 96 0.4 WSW 7 9 4 5 1020.0 1020.0 4.8
19/03:11am 18.2 19.5 17.6 96 0.4 WSW 7 9 4 5 1020.0 1020.0 4.8
19/03:00am 18.2 19.5 17.6 96 0.4 SSW 7 7 4 4 1020.0 1020.0 4.8
19/02:31am 17.9 17.8 16.9 94 0.6 SE 13 20 7 11 1019.8 1019.8 3.6
19/02:30am 17.9 17.4 16.9 94 0.6 SE 15 22 8 12 1019.8 1019.8 3.4
19/02:19am 18.2 17.0 17.4 95 0.5 SSE 20 30 11 16 1019.7 1019.7 2.8
19/02:06am 18.3 17.1 17.5 95 0.5 SSE 20 28 11 15 1019.6 1019.6 1.8
19/02:04am 18.4 17.5 17.8 96 0.4 S 19 26 10 14 1019.6 1019.6 1.6
19/02:00am 18.5 18.4 17.9 96 0.4 S 15 26 8 14 1019.6 1019.6 1.4
19/01:40am 18.8 18.8 18.1 96 0.4 SSW 15 24 8 13 1019.3 1019.3 0.6
19/01:32am 18.9 19.4 18.4 97 0.3 SW 13 17 7 9 1019.3 1019.3 0.0
19/01:30am 18.9 19.4 18.4 97 0.3 WSW 13 17 7 9 1019.3 1019.3 0.0
19/01:00am 17.6 20.0 17.1 97 0.3 CALM 0 0 0 0 1019.2 1019.2 0.0
19/12:30am 18.0 20.6 17.5 97 0.3 CALM 0 0 0 0 1019.4 1019.4 0.0
19/12:13am 17.6 18.9 17.1 97 0.3 WNW 6 7 3 4 1019.3 1019.3 0.0
19/12:00am 17.7 20.2 17.2 97 0.3 CALM 0 0 0 0 1019.3 1019.3 0.0
 
Date/Time
EST
Temp
°C
App
Temp
°C
Dew
Point
°C
Rel
Hum
%
Delta-T
°C
Wind Press
QNH
hPa
Press
MSL
hPa
Rain since
9am
mm
Dir  Spd
km/h
Gust
km/h
Spd
kts
Gust
kts
18/11:55pm 17.6 20.0 17.1 97 0.3 CALM 0 0 0 0 1019.4 1019.4 0.0
18/11:30pm 18.3 21.0 17.8 97 0.3 CALM 0 0 0 0 1019.2 1019.2 0.0
18/11:00pm 18.4 20.8 17.9 97 0.3 WSW 2 6 1 3 1019.4 1019.4 0.0
18/10:30pm 18.5 20.0 18.0 97 0.3 W 7 7 4 4 1019.5 1019.5 0.0
18/10:00pm 18.3 21.0 17.8 97 0.3 CALM 0 0 0 0 1019.5 1019.5 0.0
18/09:41pm 18.0 20.6 17.5 97 0.3 CALM 0 0 0 0 1019.5 1019.5 0.0
18/09:30pm 17.5 19.9 17.0 97 0.3 CALM 0 0 0 0 1019.4 1019.4 0.0
18/09:16pm 17.3 19.6 16.7 96 0.4 CALM 0 0 0 0 1019.4 1019.4 0.0
18/09:00pm 18.3 20.3 17.8 97 0.3 W 4 7 2 4 1019.4 1019.4 0.0
18/08:30pm 17.4 19.7 16.8 96 0.4 CALM 0 6 0 3 1019.2 1019.2 0.0
18/08:15pm 17.9 20.4 17.3 96 0.4 CALM 0 0 0 0 1019.1 1019.1 0.0
18/08:00pm 17.7 20.1 17.1 96 0.4 CALM 0 0 0 0 1018.9 1018.9 0.0
18/07:44pm 18.2 20.8 17.6 96 0.4 CALM 0 0 0 0 1018.8 1018.8 0.0
18/07:30pm 18.1 20.6 17.3 95 0.5 CALM 0 0 0 0 1018.7 1018.7 0.0
18/07:00pm 18.5 21.2 17.7 95 0.5 CALM 0 6 0 3 1018.3 1018.3 0.0
18/06:30pm 18.5 19.8 17.2 92 0.8 N 6 7 3 4 1018.1 1018.1 0.0
18/06:00pm 19.7 21.4 18.4 92 0.8 NNE 7 9 4 5 1017.7 1017.7 0.0
18/05:30pm 20.3 21.9 18.2 88 1.3 NNE 7 11 4 6 1017.6 1017.6 0.0
18/05:00pm 21.0 22.7 18.4 85 1.6 NNE 7 7 4 4 1017.2 1017.2 0.0
18/04:30pm 22.1 23.2 18.9 82 2.0 NE 11 15 6 8 1016.8 1016.8 0.0
18/04:00pm 22.8 23.8 18.6 77 2.6 NE 11 17 6 9 1016.6 1016.6 0.0
18/03:30pm 23.3 23.5 18.6 75 3.0 NE 15 20 8 11 1016.5 1016.5 0.0
18/03:00pm 23.8 24.5 18.9 74 3.1 ENE 13 19 7 10 1016.4 1016.4 0.0
18/02:30pm 23.6 23.9 18.7 74 3.1 ENE 15 20 8 11 1016.7 1016.7 0.0
18/02:00pm 23.3 23.8 18.4 74 3.1 E 13 17 7 9 1016.7 1016.7 0.0
18/01:30pm 23.1 24.2 18.0 73 3.2 E 9 13 5 7 1016.9 1016.9 0.0
18/01:00pm 23.6 25.2 17.8 70 3.6 SSE 6 9 3 5 1017.2 1017.2 0.0
18/12:30pm 23.0 23.7 17.9 73 3.2 E 11 15 6 8 1017.5 1017.5 0.0
18/12:00pm 23.4 24.8 17.8 71 3.5 SSW 7 9 4 5 1017.9 1017.9 0.0
18/11:30am 23.6 25.2 17.8 70 3.6 ENE 6 11 3 6 1018.5 1018.5 0.0
18/11:00am 22.9 24.7 17.4 71 3.4 S 4 9 2 5 1019.0 1019.0 0.0
18/10:30am 23.1 24.7 17.8 72 3.3 WSW 6 9 3 5 1019.5 1019.5 0.0
18/10:00am 22.5 24.0 17.6 74 3.0 WSW 6 11 3 6 1019.5 1019.5 0.0
18/09:30am 21.6 21.5 17.0 75 2.8 WSW 13 17 7 9 1019.6 1019.6 0.0
18/09:00am 20.5 20.8 17.1 81 2.1 WSW 11 15 6 8 1019.7 1019.7 0.0
18/08:30am 19.9 20.6 17.1 84 1.7 W 9 11 5 6 1019.4 1019.4 0.0
18/08:00am 18.5 19.5 16.3 87 1.3 WNW 6 7 3 4 1019.1 1019.1 0.0
18/07:30am 17.8 18.5 16.1 90 1.0 WNW 7 9 4 5 1019.2 1019.2 0.0
18/07:00am 17.5 17.5 16.2 92 0.8 WSW 11 13 6 7 1019.1 1019.1 0.0
18/06:30am 16.8 17.7 16.0 95 0.5 WNW 6 7 3 4 1018.9 1018.9 0.0
18/06:00am 16.6 17.8 15.8 95 0.5 WNW 4 7 2 4 1018.4 1018.4 0.0
18/05:30am 17.2 19.0 16.4 95 0.5 WNW 2 6 1 3 1017.9 1017.9 0.0
18/05:00am 17.4 18.6 16.8 96 0.4 WNW 6 7 3 4 1018.1 1018.1 0.0
18/04:30am 17.2 19.1 16.6 96 0.4 WSW 2 7 1 4 1018.0 1018.0 0.0
18/04:00am 16.8 18.9 16.2 96 0.4 CALM 0 0 0 0 1017.9 1017.9 0.0
18/03:30am 16.8 18.8 16.0 95 0.5 CALM 0 0 0 0 1017.7 1017.7 0.0
18/03:00am 17.2 19.4 16.4 95 0.5 CALM 0 0 0 0 1017.6 1017.6 0.0
18/02:30am 17.4 18.5 16.6 95 0.5 WSW 6 7 3 4 1017.9 1017.9 0.0
18/02:00am 17.8 19.1 17.0 95 0.5 WSW 6 6 3 3 1018.1 1018.1 0.0
18/01:30am 18.1 20.5 17.1 94 0.6 CALM 0 0 0 0 1018.3 1018.3 0.0
18/01:00am 18.7 21.3 17.4 92 0.8 CALM 0 0 0 0 1018.6 1018.6 0.0
18/12:30am 19.0 20.0 17.8 93 0.7 WSW 9 9 5 5 1018.8 1018.8 0.0
18/12:00am 19.4 21.5 18.2 93 0.7 SW 4 6 2 3 1019.0 1019.0 0.0
 
Date/Time
EST
Temp
°C
App
Temp
°C
Dew
Point
°C
Rel
Hum
%
Delta-T
°C
Wind Press
QNH
hPa
Press
MSL
hPa
Rain since
9am
mm
Dir  Spd
km/h
Gust
km/h
Spd
kts
Gust
kts
17/11:30pm 19.3 20.8 18.1 93 0.7 SW 7 9 4 5 1019.0 1019.0 0.0
17/11:00pm 19.3 20.4 18.1 93 0.7 SW 9 9 5 5 1019.1 1019.1 0.0
17/10:30pm 18.8 21.3 17.3 91 0.9 CALM 0 0 0 0 1019.1 1019.1 0.0
17/10:00pm 20.0 21.3 17.0 83 1.8 SE 6 9 3 5 1019.1 1019.1 0.0
17/09:30pm 20.9 22.1 17.3 80 2.2 SE 7 9 4 5 1019.2 1019.2 0.0
17/09:00pm 21.3 22.6 17.5 79 2.3 SE 7 11 4 6 1019.1 1019.1 0.0
17/08:30pm 21.3 22.2 17.5 79 2.3 SE 9 11 5 6 1019.2 1019.2 0.0
17/08:00pm 21.4 22.2 17.4 78 2.5 SE 9 13 5 7 1019.1 1019.1 0.0
17/07:30pm 21.2 21.7 17.4 79 2.3 SE 11 15 6 8 1018.8 1018.8 0.0
17/07:00pm 21.2 22.0 17.2 78 2.4 SE 9 13 5 7 1018.7 1018.7 0.0
17/06:30pm 21.2 22.0 17.2 78 2.4 SE 9 15 5 8 1018.4 1018.4 0.0
17/06:00pm 21.0 21.3 17.0 78 2.4 SE 11 15 6 8 1018.0 1018.0 0.0
17/05:30pm 21.1 21.4 16.9 77 2.6 SE 11 17 6 9 1017.8 1017.8 0.0
17/05:00pm 21.4 21.3 17.0 76 2.7 SE 13 19 7 10 1017.5 1017.5 0.0
17/04:30pm 21.3 21.3 17.3 78 2.5 SSE 13 19 7 10 1017.3 1017.3 0.0
17/04:00pm 21.4 21.5 17.4 78 2.5 SSE 13 17 7 9 1017.3 1017.3 0.0
17/03:30pm 21.4 21.1 17.4 78 2.5 S 15 22 8 12 1017.2 1017.2 0.0
17/03:00pm 21.5 20.5 17.5 78 2.5 SSE 19 22 10 12 1017.0 1017.0 0.0
17/02:30pm 21.7 21.9 17.7 78 2.5 SSE 13 19 7 10 1017.0 1017.0 0.0
17/02:00pm 21.7 21.7 18.1 80 2.2 S 15 20 8 11 1016.8 1016.8 0.0
17/01:30pm 21.0 20.5 17.8 82 2.0 S 17 24 9 13 1017.1 1017.1 0.0
17/01:00pm 20.2 19.2 18.0 87 1.4 S 20 28 11 15 1017.4 1017.4 0.0
17/12:30pm 20.3 20.6 18.8 91 0.9 SSW 15 20 8 11 1017.6 1017.6 0.0
17/12:00pm 20.5 20.2 19.2 92 0.8 S 19 26 10 14 1017.8 1017.8 0.0
17/11:30am 21.3 19.6 18.9 86 1.5 S 26 37 14 20 1017.8 1017.8 0.0
17/11:00am 22.3 22.0 19.5 84 1.8 SSW 20 33 11 18 1017.8 1017.8 0.0
17/10:30am 22.8 22.5 19.6 82 2.0 SSW 20 33 11 18 1017.9 1017.9 0.0
17/10:24am 22.6 22.3 19.6 83 1.9 SSW 20 35 11 19 1018.0 1018.0 0.0
17/10:00am 22.5 22.1 19.3 82 2.0 SSW 20 33 11 18 1018.1 1018.1 0.0
17/09:30am 22.1 22.5 19.8 87 1.5 SSW 17 33 9 18 1018.0 1018.0 0.0
17/09:00am 21.9 22.0 20.0 89 1.2 SSW 19 30 10 16 1017.9 1017.9 0.0
17/08:36am 22.3 23.3 20.2 88 1.4 SW 15 20 8 11 1017.6 1017.6 0.0
17/08:30am 22.0 22.4 19.9 88 1.3 SW 17 24 9 13 1017.5 1017.5 0.0
17/08:00am 21.3 23.2 19.8 91 1.0 SW 9 15 5 8 1017.1 1017.1 0.0
17/07:30am 21.0 22.9 19.8 93 0.8 WSW 9 13 5 7 1016.8 1016.8 0.0
17/07:00am 20.7 23.0 19.9 95 0.5 WSW 7 9 4 5 1016.5 1016.5 0.0
17/06:30am 20.4 22.8 19.7 96 0.4 WSW 6 7 3 4 1016.1 1016.1 0.0
17/06:00am 20.4 22.6 19.7 96 0.4 SW 7 9 4 5 1015.7 1015.7 0.0
17/05:42am 20.3 22.7 19.6 96 0.4 SW 6 7 3 4 1015.5 1015.5 0.0
17/05:30am 20.3 22.7 19.6 96 0.4 SW 6 6 3 3 1015.4 1015.4 0.0
17/05:00am 20.3 22.7 19.6 96 0.4 SW 6 9 3 5 1015.1 1015.1 0.0
17/04:55am 20.2 22.5 19.5 96 0.4 SW 6 9 3 5 1015.0 1015.0 0.0

Other formats

Comma delimited format used in spreadsheet applications
http://www.bom.gov.au/fwo/IDN60801/IDN60801.94596.axf

JavaScript Object Notation format (JSON) in row-major order
http://www.bom.gov.au/fwo/IDN60801/IDN60801.94596.json

Data quality

Most of these data are generated automatically and are frequently updated. Quality checks on data are not normally performed. It is possible for incorrect values to appear. Refer to information at About Latest Weather Observations and please check the disclaimer before using these data.